Time;durP1;ratioP1;P1;durP2;ratioP2;P2;SDS_P1;SDS_P2;PMS_P1;PMS_P2;Temp;Humidity;BMP_temperature;BMP_pressure;BME280_temperature;BME280_humidity;BME280_pressure;Samples;Min_cycle;Max_cycle;Signal;HPM_P1;HPM_P2
2023/07/09 00:00:29;;;;;;;7.63;6.00;;;23.80;25.60;;;;;;10402472;28;20324;-74
2023/07/09 00:05:33;;;;;;;6.63;6.03;;;23.80;25.70;;;;;;10404460;28;20234;-76
2023/07/09 00:10:36;;;;;;;6.30;5.70;;;23.90;26.20;;;;;;10405722;28;20304;-76
2023/07/09 00:15:39;;;;;;;6.23;5.63;;;23.90;25.60;;;;;;10404574;28;20230;-75
2023/07/09 00:20:47;;;;;;;6.77;6.00;;;23.90;25.80;;;;;;10403457;28;20635;-77
2023/07/09 00:25:51;;;;;;;7.43;5.83;;;23.80;26.10;;;;;;10401703;28;20225;-75
2023/07/09 00:30:54;;;;;;;6.60;5.93;;;23.80;25.90;;;;;;10401929;28;20639;-75
2023/07/09 00:35:59;;;;;;;6.33;5.73;;;23.80;26.00;;;;;;10403657;28;20330;-75
2023/07/09 00:41:05;;;;;;;7.10;6.30;;;23.70;26.40;;;;;;10400702;28;20228;-76
2023/07/09 00:46:17;;;;;;;7.40;6.33;;;23.60;27.00;;;;;;10401350;28;20321;-75
2023/07/09 00:51:23;;;;;;;6.50;5.90;;;23.50;27.10;;;;;;10397839;28;20241;-76
2023/07/09 00:56:30;;;;;;;7.57;6.43;;;23.40;27.10;;;;;;10400681;28;20260;-76
2023/07/09 01:01:35;;;;;;;7.13;6.27;;;23.40;27.20;;;;;;10401831;28;20810;-75
2023/07/09 01:06:44;;;;;;;7.97;6.37;;;23.30;27.00;;;;;;10401648;28;20234;-76
2023/07/09 01:11:47;;;;;;;6.87;5.87;;;23.20;27.50;;;;;;10397906;28;20236;-76
2023/07/09 01:16:57;;;;;;;6.67;6.07;;;23.00;26.80;;;;;;10400775;28;20243;-76
2023/07/09 01:22:02;;;;;;;7.23;6.53;;;22.80;27.20;;;;;;10402372;28;20229;-75
2023/07/09 01:27:07;;;;;;;7.20;6.47;;;22.70;27.50;;;;;;10401315;28;20221;-76
2023/07/09 01:32:11;;;;;;;5.93;5.43;;;22.60;27.10;;;;;;10401991;28;20240;-75
2023/07/09 01:37:17;;;;;;;6.57;5.70;;;22.70;27.10;;;;;;10401345;28;20233;-75
2023/07/09 01:42:22;;;;;;;7.03;6.03;;;22.70;28.00;;;;;;10400145;28;20656;-75
2023/07/09 01:47:25;;;;;;;8.77;6.47;;;22.60;27.80;;;;;;10408842;28;20233;-76
2023/07/09 01:52:32;;;;;;;6.57;5.97;;;22.40;27.50;;;;;;10409487;28;20236;-75
2023/07/09 01:57:35;;;;;;;6.33;5.73;;;22.20;28.20;;;;;;10410166;28;20229;-76
2023/07/09 02:02:42;;;;;;;7.23;6.47;;;22.10;27.90;;;;;;10409391;28;20225;-76
2023/07/09 02:07:48;;;;;;;6.20;5.60;;;22.10;28.30;;;;;;10406123;28;20222;-75
2023/07/09 02:12:51;;;;;;;6.90;6.30;;;22.10;28.70;;;;;;10408171;28;20326;-75
2023/07/09 02:17:54;;;;;;;6.67;5.97;;;22.10;28.30;;;;;;10410103;28;20241;-76
2023/07/09 02:22:59;;;;;;;8.20;6.03;;;22.10;28.40;;;;;;10408361;28;20233;-75
2023/07/09 02:28:02;;;;;;;6.87;6.03;;;22.10;28.80;;;;;;10408325;28;20449;-76
2023/07/09 02:33:05;;;;;;;7.10;5.67;;;22.10;29.10;;;;;;10406597;28;20815;-76
2023/07/09 02:38:10;;;;;;;6.60;5.97;;;21.90;28.40;;;;;;10408863;28;20284;-76
2023/07/09 02:43:13;;;;;;;6.90;6.27;;;21.80;29.20;;;;;;10408601;28;20226;-76
2023/07/09 02:48:16;;;;;;;6.47;5.77;;;21.60;28.70;;;;;;10407204;28;20228;-75
2023/07/09 02:53:22;;;;;;;6.40;5.80;;;21.50;29.00;;;;;;10406494;28;20226;-76
2023/07/09 02:58:25;;;;;;;6.63;6.00;;;21.40;29.80;;;;;;10407686;28;20605;-76
2023/07/09 03:03:29;;;;;;;8.13;6.00;;;21.40;29.20;;;;;;10406510;28;20222;-76
2023/07/09 03:08:34;;;;;;;6.47;5.87;;;21.40;29.30;;;;;;10408352;28;20698;-76
2023/07/09 03:13:37;;;;;;;6.10;5.50;;;21.50;29.80;;;;;;10405714;28;20312;-76
2023/07/09 03:18:40;;;;;;;7.60;5.93;;;21.50;29.20;;;;;;10405982;28;20257;-76
2023/07/09 03:23:45;;;;;;;7.33;5.63;;;21.60;29.30;;;;;;10406487;28;20229;-75
2023/07/09 03:28:49;;;;;;;6.63;5.93;;;21.60;29.70;;;;;;10405267;28;20335;-76
2023/07/09 03:33:53;;;;;;;8.97;6.40;;;21.60;29.20;;;;;;10404922;28;20229;-75
2023/07/09 03:38:57;;;;;;;6.67;6.07;;;21.60;29.60;;;;;;10399254;28;20308;-75
2023/07/09 03:44:01;;;;;;;6.73;6.03;;;21.60;29.80;;;;;;10393319;28;20382;-75
2023/07/09 03:49:04;;;;;;;6.93;5.70;;;21.40;29.50;;;;;;10404041;28;20268;-76
2023/07/09 03:54:08;;;;;;;5.43;4.90;;;21.20;29.60;;;;;;10399154;28;20222;-75
2023/07/09 03:59:12;;;;;;;6.67;6.03;;;21.10;30.00;;;;;;10402968;28;20229;-76
2023/07/09 04:04:15;;;;;;;8.33;6.13;;;21.10;30.00;;;;;;10399423;28;20226;-76
2023/07/09 04:09:20;;;;;;;6.37;5.50;;;21.10;30.10;;;;;;10390969;28;20232;-74
2023/07/09 04:14:23;;;;;;;5.53;5.03;;;21.10;30.60;;;;;;10400482;28;20304;-76
2023/07/09 04:19:26;;;;;;;6.83;5.27;;;21.00;30.00;;;;;;10403793;28;20304;-76
2023/07/09 04:24:33;;;;;;;6.00;5.40;;;21.10;30.20;;;;;;10401231;28;20225;-75
2023/07/09 04:29:38;;;;;;;5.13;4.67;;;21.10;31.00;;;;;;10398624;28;20233;-76
2023/07/09 04:34:41;;;;;;;6.60;5.83;;;21.20;30.40;;;;;;10403797;28;20268;-75
2023/07/09 04:39:47;;;;;;;6.37;5.77;;;21.20;30.50;;;;;;10398576;28;20792;-75
2023/07/09 04:44:50;;;;;;;6.93;5.67;;;21.20;31.00;;;;;;10399681;28;20232;-76
2023/07/09 04:49:53;;;;;;;7.10;6.40;;;21.30;30.80;;;;;;10402915;28;20331;-76
2023/07/09 04:54:58;;;;;;;6.83;6.13;;;21.30;30.90;;;;;;10402283;28;20283;-76
2023/07/09 05:00:01;;;;;;;7.60;6.23;;;21.40;31.40;;;;;;10398448;28;20252;-75
2023/07/09 05:05:05;;;;;;;7.13;6.43;;;21.40;30.90;;;;;;10398240;28;21560;-75
2023/07/09 05:10:10;;;;;;;7.57;6.87;;;21.50;31.20;;;;;;10399575;28;20225;-76
2023/07/09 05:15:14;;;;;;;8.70;7.47;;;21.50;31.80;;;;;;10400318;28;20274;-76
2023/07/09 05:20:17;;;;;;;7.90;7.10;;;21.60;31.40;;;;;;10413571;28;20229;-76
2023/07/09 05:25:21;;;;;;;7.70;6.90;;;21.70;31.50;;;;;;10415031;28;20233;-76
2023/07/09 05:30:25;;;;;;;8.97;7.13;;;21.80;32.00;;;;;;10410840;28;20222;-76
2023/07/09 05:35:28;;;;;;;7.70;7.00;;;21.90;31.80;;;;;;10415059;28;20727;-76
2023/07/09 05:40:33;;;;;;;7.40;6.63;;;22.00;31.70;;;;;;10409567;28;20666;-76
2023/07/09 05:45:36;;;;;;;7.73;6.93;;;22.10;32.10;;;;;;10410216;28;20233;-76
2023/07/09 05:50:40;;;;;;;8.27;7.47;;;22.30;31.90;;;;;;10411659;28;20740;-76
2023/07/09 05:55:44;;;;;;;10.00;7.50;;;22.50;32.10;;;;;;10412188;28;20232;-76
2023/07/09 06:00:52;;;;;;;9.03;7.73;;;22.60;32.30;;;;;;10411306;28;20229;-77
2023/07/09 06:05:57;;;;;;;8.03;7.23;;;22.80;32.50;;;;;;10412858;28;20264;-76
2023/07/09 06:11:03;;;;;;;8.87;7.97;;;23.00;31.80;;;;;;10412054;28;20272;-77
2023/07/09 06:16:07;;;;;;;8.30;7.50;;;23.20;32.20;;;;;;10415341;28;20225;-77
2023/07/09 06:21:12;;;;;;;9.57;8.07;;;23.40;31.80;;;;;;10412757;28;20226;-77
2023/07/09 06:26:17;;;;;;;8.57;7.63;;;23.60;31.90;;;;;;10411514;28;20245;-77
2023/07/09 06:31:20;;;;;;;9.27;7.07;;;23.80;32.10;;;;;;10407750;28;20344;-76
2023/07/09 06:36:24;;;;;;;9.50;7.80;;;24.00;31.80;;;;;;10410117;28;20234;-77
2023/07/09 06:41:29;;;;;;;11.93;7.43;;;24.20;31.60;;;;;;10405120;28;20225;-76
2023/07/09 06:46:32;;;;;;;9.77;7.77;;;24.40;32.10;;;;;;10405053;28;20253;-77
2023/07/09 06:51:35;;;;;;;9.67;7.33;;;24.60;31.60;;;;;;10403628;28;20225;-77
2023/07/09 06:56:40;;;;;;;8.37;7.57;;;24.80;31.50;;;;;;10400131;28;20236;-77
2023/07/09 07:01:43;;;;;;;8.10;7.03;;;25.00;31.60;;;;;;10404813;28;20261;-77
2023/07/09 07:06:47;;;;;;;8.13;7.33;;;25.20;31.10;;;;;;10402153;28;20302;-77
2023/07/09 07:11:54;;;;;;;8.10;7.30;;;25.40;31.10;;;;;;10401867;28;20237;-77
2023/07/09 07:16:57;;;;;;;7.13;6.53;;;25.60;31.20;;;;;;10403600;28;20229;-77
2023/07/09 07:22:01;;;;;;;7.77;6.97;;;25.80;31.00;;;;;;10405852;28;20344;-76
2023/07/09 07:27:06;;;;;;;7.87;7.03;;;26.00;30.60;;;;;;10400354;28;20876;-77
2023/07/09 07:32:09;;;;;;;7.37;6.50;;;26.20;30.30;;;;;;10400677;28;20233;-77
2023/07/09 07:37:13;;;;;;;7.90;7.10;;;26.40;30.10;;;;;;10402456;28;20240;-76
2023/07/09 07:42:18;;;;;;;7.47;6.77;;;26.70;30.10;;;;;;10399745;28;20594;-77
2023/07/09 07:47:21;;;;;;;7.90;7.17;;;27.00;29.70;;;;;;10400348;28;21403;-77
2023/07/09 07:52:25;;;;;;;7.90;7.20;;;27.20;29.80;;;;;;10404104;28;20233;-77
2023/07/09 07:57:30;;;;;;;8.33;6.77;;;27.40;29.50;;;;;;10403282;28;20295;-77
2023/07/09 08:02:33;;;;;;;7.07;6.47;;;27.50;29.50;;;;;;10396992;28;20229;-77
2023/07/09 08:07:36;;;;;;;7.53;5.93;;;27.70;29.40;;;;;;10400214;28;20265;-77
2023/07/09 08:12:41;;;;;;;6.80;5.50;;;28.00;29.00;;;;;;10400000;28;20773;-77
2023/07/09 08:17:44;;;;;;;5.83;5.33;;;28.30;28.30;;;;;;10400101;28;20233;-77
2023/07/09 08:22:47;;;;;;;5.93;4.87;;;28.60;28.00;;;;;;10401956;28;20236;-77
2023/07/09 08:27:52;;;;;;;5.07;4.57;;;28.90;27.40;;;;;;10402400;28;20333;-76
2023/07/09 08:32:57;;;;;;;5.03;4.57;;;29.20;26.80;;;;;;10402279;28;20236;-77
2023/07/09 08:38:00;;;;;;;4.90;4.40;;;29.40;26.70;;;;;;10402924;28;20230;-74
2023/07/09 08:43:14;;;;;;;5.20;4.70;;;29.70;26.50;;;;;;10399894;28;20236;-74
2023/07/09 08:48:24;;;;;;;4.80;4.40;;;30.00;25.80;;;;;;10399005;28;20222;-73
2023/07/09 08:53:34;;;;;;;5.90;5.27;;;30.30;25.20;;;;;;10400457;28;20233;-74
2023/07/09 08:58:40;;;;;;;5.90;5.03;;;30.50;25.10;;;;;;10400867;28;20260;-74
2023/07/09 09:03:48;;;;;;;5.30;4.73;;;30.80;25.00;;;;;;10402310;28;20232;-74
2023/07/09 09:09:05;;;;;;;4.93;4.23;;;31.10;24.80;;;;;;10396415;28;20292;-73
2023/07/09 09:14:29;;;;;;;4.50;4.10;;;31.40;24.00;;;;;;10386697;28;20218;-75
2023/07/09 09:19:38;;;;;;;4.90;4.50;;;31.70;23.40;;;;;;10393328;28;20255;-75
2023/07/09 09:25:00;;;;;;;4.80;4.40;;;31.90;23.30;;;;;;10404735;28;20236;-76
2023/07/09 09:30:09;;;;;;;5.47;4.87;;;32.20;22.30;;;;;;10405057;28;20227;-77
2023/07/09 09:35:15;;;;;;;4.70;4.30;;;32.40;22.30;;;;;;10403562;28;20238;-77
2023/07/09 09:40:21;;;;;;;6.67;4.07;;;32.60;22.50;;;;;;10402373;28;20231;-74
2023/07/09 09:45:33;;;;;;;5.33;4.00;;;32.80;22.50;;;;;;10403566;28;20255;-75
2023/07/09 09:50:36;;;;;;;5.10;3.40;;;33.10;20.80;;;;;;10402808;28;20234;-77
2023/07/09 09:55:40;;;;;;;4.23;3.37;;;33.30;21.60;;;;;;10402617;28;20320;-73
2023/07/09 10:00:51;;;;;;;3.37;3.07;;;33.50;20.90;;;;;;10401661;28;20253;-74
2023/07/09 10:06:00;;;;;;;3.70;3.40;;;33.70;19.60;;;;;;10406100;28;20230;-72
2023/07/09 10:11:12;;;;;;;3.70;3.40;;;33.90;18.70;;;;;;10406691;28;20722;-74
2023/07/09 10:16:29;;;;;;;6.57;3.47;;;33.90;17.90;;;;;;10408204;28;20225;-73
2023/07/09 10:21:38;;;;;;;3.80;3.50;;;34.00;18.30;;;;;;10414288;28;20599;-75
2023/07/09 10:26:46;;;;;;;3.97;3.57;;;34.00;19.10;;;;;;10409372;28;20237;-73
2023/07/09 10:31:57;;;;;;;3.07;2.87;;;34.20;18.40;;;;;;10409606;28;20244;-74
2023/07/09 10:37:23;;;;;;;3.83;3.53;;;34.40;18.20;;;;;;10408496;28;20260;-76
2023/07/09 10:42:30;;;;;;;4.20;3.40;;;34.60;17.80;;;;;;10406502;28;20326;-76
2023/07/09 10:47:39;;;;;;;3.67;3.37;;;34.70;17.30;;;;;;10404553;28;20234;-75
2023/07/09 10:52:47;;;;;;;3.50;3.00;;;34.70;17.20;;;;;;10405917;28;20233;-73
2023/07/09 10:57:57;;;;;;;3.50;3.20;;;34.70;17.10;;;;;;10403159;28;20243;-76
2023/07/09 11:03:11;;;;;;;3.50;3.20;;;34.90;15.80;;;;;;10406825;28;20250;-78
2023/07/09 11:08:17;;;;;;;3.40;3.10;;;35.00;16.10;;;;;;10414599;28;20241;-80
2023/07/09 11:13:31;;;;;;;3.60;3.30;;;35.10;16.20;;;;;;10414250;28;20242;-78
2023/07/09 11:18:57;;;;;;;3.70;3.40;;;35.20;15.60;;;;;;10406655;28;20283;-78
2023/07/09 11:24:02;;;;;;;3.30;3.00;;;35.30;15.20;;;;;;10409856;28;20290;-78
2023/07/09 11:29:18;;;;;;;3.40;3.10;;;35.40;15.80;;;;;;10410158;28;20600;-78
2023/07/09 11:34:30;;;;;;;4.17;3.17;;;35.60;15.90;;;;;;10408812;28;20249;-78
2023/07/09 11:39:45;;;;;;;4.03;3.73;;;35.70;13.90;;;;;;10409306;28;21192;-78
2023/07/09 11:44:50;;;;;;;5.30;3.67;;;35.70;14.40;;;;;;10408052;28;20923;-77
2023/07/09 11:49:58;;;;;;;3.57;3.27;;;35.80;15.10;;;;;;10400202;28;20238;-77
2023/07/09 11:55:14;;;;;;;3.97;3.30;;;35.90;14.20;;;;;;10403192;28;20232;-77
2023/07/09 12:00:18;;;;;;;3.90;3.50;;;35.90;13.90;;;;;;10384483;28;20232;-77
2023/07/09 12:05:27;;;;;;;3.90;3.57;;;36.00;14.40;;;;;;10400122;28;20239;-77
2023/07/09 12:10:36;;;;;;;3.20;3.00;;;36.10;13.70;;;;;;10400995;28;20602;-77
2023/07/09 12:15:41;;;;;;;3.70;3.33;;;36.10;13.60;;;;;;10400614;28;20237;-78
2023/07/09 12:20:52;;;;;;;3.80;3.50;;;36.10;13.70;;;;;;10400430;28;20233;-76
2023/07/09 12:25:56;;;;;;;3.70;3.40;;;36.20;13.70;;;;;;10406387;28;20238;-74
2023/07/09 12:30:59;;;;;;;3.70;3.40;;;36.10;13.70;;;;;;10404971;28;20253;-75
2023/07/09 12:36:07;;;;;;;3.70;3.40;;;36.10;13.70;;;;;;10402819;28;20336;-75
2023/07/09 12:41:20;;;;;;;3.40;3.07;;;36.10;13.00;;;;;;10400931;28;20702;-74
2023/07/09 12:46:24;;;;;;;3.77;3.47;;;36.00;12.50;;;;;;10399315;28;20315;-75
2023/07/09 12:51:31;;;;;;;4.17;3.50;;;36.00;13.60;;;;;;10405255;28;20316;-77
2023/07/09 12:56:36;;;;;;;5.43;3.60;;;36.10;12.40;;;;;;10404547;28;20240;-75
2023/07/09 13:01:39;;;;;;;3.53;3.23;;;36.10;12.90;;;;;;10404030;28;20236;-75
2023/07/09 13:06:45;;;;;;;3.73;3.47;;;36.20;13.00;;;;;;10400702;28;20264;-76
2023/07/09 13:11:49;;;;;;;3.80;3.50;;;36.20;11.50;;;;;;10399134;28;20236;-77
2023/07/09 13:16:52;;;;;;;3.90;3.50;;;36.20;12.40;;;;;;10403653;28;20229;-75
2023/07/09 13:21:57;;;;;;;3.40;3.10;;;36.30;12.40;;;;;;10403129;28;20745;-75
2023/07/09 13:27:01;;;;;;;4.87;3.47;;;36.40;11.80;;;;;;10404054;28;20239;-73
2023/07/09 13:32:10;;;;;;;3.60;3.30;;;36.50;11.90;;;;;;10402378;28;20255;-75
2023/07/09 13:37:16;;;;;;;3.60;3.30;;;36.60;11.10;;;;;;10403567;28;20321;-73
2023/07/09 13:42:19;;;;;;;3.63;3.30;;;36.60;11.10;;;;;;10409640;28;20246;-73
2023/07/09 13:47:22;;;;;;;3.77;3.47;;;36.70;11.40;;;;;;10410064;28;20233;-73
2023/07/09 13:52:27;;;;;;;3.67;3.23;;;36.70;11.40;;;;;;10410960;28;20716;-75
2023/07/09 13:57:31;;;;;;;3.43;3.13;;;36.70;11.00;;;;;;10407988;28;20888;-76
2023/07/09 14:02:34;;;;;;;3.60;3.30;;;36.70;11.30;;;;;;10410811;28;20244;-74
2023/07/09 14:07:41;;;;;;;3.73;3.40;;;36.80;11.30;;;;;;10409678;28;20240;-74
2023/07/09 14:12:47;;;;;;;4.07;3.30;;;36.70;10.50;;;;;;10409197;28;20232;-75
2023/07/09 14:17:51;;;;;;;3.47;3.20;;;36.70;10.30;;;;;;10402626;28;21264;-75
2023/07/09 14:22:56;;;;;;;3.87;3.40;;;36.70;11.00;;;;;;10405063;28;20242;-75
2023/07/09 14:27:59;;;;;;;4.10;3.70;;;36.60;10.70;;;;;;10401922;28;20785;-74
2023/07/09 14:33:02;;;;;;;3.47;3.27;;;36.60;10.70;;;;;;10407236;28;20756;-74
2023/07/09 14:38:17;;;;;;;3.80;3.50;;;36.60;10.60;;;;;;10407125;28;20656;-75
2023/07/09 14:43:20;;;;;;;3.60;3.30;;;36.60;10.40;;;;;;10405351;28;20925;-75
2023/07/09 14:48:24;;;;;;;3.90;3.60;;;36.70;10.80;;;;;;10408800;28;20311;-75
2023/07/09 14:53:29;;;;;;;3.90;3.60;;;36.70;10.80;;;;;;10402250;28;20312;-74
2023/07/09 14:58:32;;;;;;;4.03;3.73;;;36.80;10.40;;;;;;10407864;28;20243;-79
2023/07/09 15:03:35;;;;;;;3.60;3.30;;;36.90;10.30;;;;;;10405204;28;20236;-77
2023/07/09 15:08:40;;;;;;;3.73;3.43;;;36.90;10.40;;;;;;10406075;28;20257;-79
2023/07/09 15:13:43;;;;;;;3.70;3.40;;;37.00;10.20;;;;;;10403931;28;20566;-78
2023/07/09 15:18:46;;;;;;;4.10;3.70;;;37.00;10.20;;;;;;10404236;28;20916;-80
2023/07/09 15:23:51;;;;;;;4.57;3.43;;;37.00;10.20;;;;;;10404317;28;20238;-79
2023/07/09 15:28:54;;;;;;;3.97;3.53;;;37.00;9.80;;;;;;10403159;28;21338;-79
2023/07/09 15:33:57;;;;;;;4.27;3.50;;;37.00;10.00;;;;;;10402127;28;20234;-79
2023/07/09 15:39:02;;;;;;;3.67;3.37;;;37.00;10.00;;;;;;10401559;28;20239;-81
2023/07/09 15:44:06;;;;;;;3.87;3.57;;;37.00;9.80;;;;;;10408657;28;20240;-80
2023/07/09 15:49:12;;;;;;;4.07;3.40;;;37.10;10.20;;;;;;10406819;28;20240;-80
2023/07/09 15:54:18;;;;;;;3.80;3.40;;;37.10;9.20;;;;;;10404606;28;20296;-79
2023/07/09 15:59:28;;;;;;;3.77;3.47;;;37.00;8.90;;;;;;10402647;28;20229;-79
2023/07/09 16:04:32;;;;;;;4.00;3.60;;;36.90;8.70;;;;;;10406952;28;20296;-80
2023/07/09 16:09:39;;;;;;;3.90;3.60;;;36.80;9.50;;;;;;10401567;28;20232;-75
2023/07/09 16:14:42;;;;;;;3.80;3.50;;;36.70;9.20;;;;;;10402295;28;20332;-76
2023/07/09 16:19:45;;;;;;;3.73;3.43;;;36.70;9.50;;;;;;10401732;28;20249;-77
2023/07/09 16:24:50;;;;;;;4.30;3.60;;;36.70;9.30;;;;;;10403743;28;20225;-75
2023/07/09 16:29:53;;;;;;;3.70;3.40;;;36.60;9.00;;;;;;10402204;28;20222;-75
2023/07/09 16:34:56;;;;;;;3.83;3.47;;;36.50;9.30;;;;;;10402173;28;20320;-75
2023/07/09 16:40:01;;;;;;;3.70;3.40;;;36.50;9.50;;;;;;10405888;28;20239;-76
2023/07/09 16:45:04;;;;;;;3.77;3.33;;;36.50;9.50;;;;;;10396777;28;20232;-76
2023/07/09 16:50:15;;;;;;;3.90;3.50;;;36.50;9.70;;;;;;10403156;28;20295;-75
2023/07/09 16:55:26;;;;;;;3.60;3.30;;;36.40;9.50;;;;;;10405455;28;20232;-75
2023/07/09 17:00:32;;;;;;;3.73;3.40;;;36.40;9.90;;;;;;10401636;28;20852;-75
2023/07/09 17:05:35;;;;;;;3.57;3.27;;;36.40;10.00;;;;;;10402833;28;20664;-75
2023/07/09 17:10:43;;;;;;;3.63;3.33;;;36.30;10.10;;;;;;10400160;28;20231;-75
2023/07/09 17:15:46;;;;;;;3.60;3.30;;;36.20;10.20;;;;;;10394117;28;20713;-75
2023/07/09 17:20:51;;;;;;;4.13;3.50;;;36.00;10.60;;;;;;10399766;28;20232;-75
2023/07/09 17:25:57;;;;;;;4.07;3.77;;;35.90;10.60;;;;;;10408082;28;20234;-75
2023/07/09 17:31:00;;;;;;;9.03;4.20;;;35.70;10.20;;;;;;10397765;28;20231;-74
2023/07/09 17:36:09;;;;;;;8.57;4.07;;;35.70;12.10;;;;;;10395338;28;20550;-75
2023/07/09 17:41:18;;;;;;;5.67;3.90;;;35.70;12.00;;;;;;10398465;28;20240;-76
2023/07/09 17:46:21;;;;;;;3.37;3.07;;;35.70;11.80;;;;;;10400927;28;20232;-77
2023/07/09 17:51:24;;;;;;;15.87;5.03;;;35.70;12.00;;;;;;10404313;28;20312;-77
2023/07/09 17:56:29;;;;;;;40.40;6.70;;;35.70;12.10;;;;;;10405596;28;20311;-77
2023/07/09 18:01:32;;;;;;;4.20;3.70;;;35.70;13.40;;;;;;10404932;28;20382;-77
2023/07/09 18:06:36;;;;;;;3.90;3.60;;;35.70;13.60;;;;;;10404690;28;20601;-77
2023/07/09 18:11:40;;;;;;;4.37;3.50;;;35.60;13.80;;;;;;10404775;28;20232;-77
2023/07/09 18:16:43;;;;;;;3.87;3.57;;;35.60;14.00;;;;;;10404716;28;20227;-76
2023/07/09 18:21:48;;;;;;;4.23;3.83;;;35.50;13.90;;;;;;10399255;28;20230;-76
2023/07/09 18:26:52;;;;;;;4.13;3.73;;;35.40;14.90;;;;;;10410153;28;20235;-77
2023/07/09 18:31:55;;;;;;;5.87;3.93;;;35.30;14.50;;;;;;10412938;28;20225;-77
2023/07/09 18:37:02;;;;;;;4.90;3.90;;;35.20;14.20;;;;;;10404208;28;20320;-76
2023/07/09 18:42:14;;;;;;;4.60;4.10;;;35.10;14.60;;;;;;10411126;28;20252;-77
2023/07/09 18:47:19;;;;;;;8.27;3.90;;;34.90;15.60;;;;;;10411993;28;20226;-76
2023/07/09 18:52:24;;;;;;;4.20;3.47;;;34.90;15.40;;;;;;10411619;28;20287;-77
2023/07/09 18:57:29;;;;;;;4.83;3.80;;;34.70;15.20;;;;;;10412582;28;20274;-77
2023/07/09 19:02:32;;;;;;;3.70;3.40;;;34.60;15.80;;;;;;10412511;28;20302;-76
2023/07/09 19:07:35;;;;;;;4.03;3.67;;;34.50;15.50;;;;;;10412861;28;20793;-77
2023/07/09 19:12:41;;;;;;;4.40;3.73;;;34.30;15.40;;;;;;10409382;28;20232;-77
2023/07/09 19:17:45;;;;;;;4.43;3.73;;;34.20;16.40;;;;;;10406822;28;20247;-77
2023/07/09 19:22:49;;;;;;;4.57;3.63;;;34.10;16.00;;;;;;10406856;28;20612;-78
2023/07/09 19:27:55;;;;;;;3.50;3.30;;;33.90;16.10;;;;;;10407215;28;20244;-76
2023/07/09 19:32:59;;;;;;;4.43;4.07;;;33.70;16.60;;;;;;10402052;28;20235;-77
2023/07/09 19:38:03;;;;;;;4.37;3.90;;;33.60;16.80;;;;;;10399890;28;20233;-79
2023/07/09 19:43:07;;;;;;;4.00;3.60;;;33.50;16.70;;;;;;10394979;28;20266;-79
2023/07/09 19:48:15;;;;;;;4.47;3.97;;;33.30;16.90;;;;;;10395023;28;20310;-78
2023/07/09 19:53:24;;;;;;;5.07;4.13;;;33.20;17.90;;;;;;10397636;28;20240;-78
2023/07/09 19:58:31;;;;;;;4.77;4.27;;;32.90;17.10;;;;;;10401133;28;20234;-78
2023/07/09 20:03:36;;;;;;;5.90;5.30;;;32.60;17.20;;;;;;10408199;28;20250;-78
2023/07/09 20:08:39;;;;;;;6.07;5.37;;;32.20;17.50;;;;;;10405980;28;20383;-77
2023/07/09 20:13:44;;;;;;;6.70;5.30;;;31.70;17.70;;;;;;10408238;28;20251;-77
2023/07/09 20:18:47;;;;;;;5.33;4.73;;;31.40;18.70;;;;;;10401946;28;20226;-77
2023/07/09 20:23:51;;;;;;;7.10;4.93;;;31.10;18.70;;;;;;10401368;28;20226;-78
2023/07/09 20:28:55;;;;;;;6.50;5.00;;;30.90;18.90;;;;;;10396926;28;20317;-77
2023/07/09 20:34:05;;;;;;;5.90;4.50;;;30.50;19.40;;;;;;10405649;28;20221;-79
2023/07/09 20:39:13;;;;;;;5.17;4.50;;;30.20;19.80;;;;;;10402223;28;20830;-78
2023/07/09 20:44:21;;;;;;;5.13;4.63;;;30.00;20.40;;;;;;10405707;28;20283;-78
2023/07/09 20:49:28;;;;;;;5.73;4.97;;;29.90;20.80;;;;;;10405454;28;20231;-78
2023/07/09 20:54:31;;;;;;;6.20;5.53;;;29.70;20.70;;;;;;10404618;28;20235;-78
2023/07/09 20:59:36;;;;;;;6.20;4.90;;;29.40;20.50;;;;;;10404784;28;20660;-78
2023/07/09 21:04:39;;;;;;;4.60;4.20;;;29.10;20.90;;;;;;10399260;28;20935;-78
2023/07/09 21:09:42;;;;;;;5.57;4.20;;;28.70;20.90;;;;;;10403502;28;20328;-78
2023/07/09 21:14:47;;;;;;;5.17;4.57;;;28.40;21.40;;;;;;10406744;28;20758;-78
2023/07/09 21:19:51;;;;;;;4.87;4.13;;;28.20;22.30;;;;;;10405793;28;20256;-78
2023/07/09 21:24:57;;;;;;;4.73;4.13;;;28.20;22.20;;;;;;10404994;28;20241;-79
2023/07/09 21:30:04;;;;;;;4.40;4.00;;;28.20;23.00;;;;;;10399885;28;20287;-78
2023/07/09 21:35:17;;;;;;;4.80;4.40;;;28.30;23.80;;;;;;10401080;28;20272;-78
2023/07/09 21:40:28;;;;;;;6.17;4.00;;;28.30;23.70;;;;;;10401148;28;20785;-79
2023/07/09 21:45:37;;;;;;;4.00;3.63;;;28.30;23.30;;;;;;10402179;28;20723;-78
2023/07/09 21:50:40;;;;;;;4.40;4.00;;;28.30;23.60;;;;;;10401664;28;20329;-78
2023/07/09 21:55:44;;;;;;;5.30;3.83;;;28.30;22.80;;;;;;10402811;28;20317;-78
2023/07/09 22:00:49;;;;;;;5.70;4.27;;;28.30;22.80;;;;;;10402286;28;20736;-78
2023/07/09 22:05:58;;;;;;;4.40;4.00;;;28.30;23.90;;;;;;10410200;28;20240;-78
2023/07/09 22:11:01;;;;;;;5.87;3.93;;;28.20;23.10;;;;;;10411435;28;20228;-78
2023/07/09 22:16:09;;;;;;;4.80;4.30;;;28.00;23.20;;;;;;10409801;28;20861;-78
2023/07/09 22:21:12;;;;;;;7.90;4.30;;;27.90;23.80;;;;;;10406040;28;20276;-78
2023/07/09 22:26:16;;;;;;;4.43;3.73;;;27.80;23.50;;;;;;10408490;28;20317;-77
2023/07/09 22:31:21;;;;;;;4.60;3.97;;;27.80;23.40;;;;;;10408432;28;20225;-78
2023/07/09 22:36:24;;;;;;;4.33;3.27;;;27.70;23.80;;;;;;10408558;28;20575;-77
2023/07/09 22:41:30;;;;;;;4.10;3.57;;;27.70;23.50;;;;;;10409001;28;20767;-78
2023/07/09 22:46:39;;;;;;;5.70;3.90;;;27.60;23.60;;;;;;10406382;28;20260;-78
2023/07/09 22:51:42;;;;;;;5.53;3.93;;;27.50;24.70;;;;;;10409203;28;20813;-78
2023/07/09 22:56:45;;;;;;;4.10;3.70;;;27.50;24.10;;;;;;10408407;28;20317;-78
2023/07/09 23:01:50;;;;;;;3.80;3.50;;;27.40;24.20;;;;;;10405734;28;20225;-78
2023/07/09 23:06:54;;;;;;;4.43;3.37;;;27.30;24.80;;;;;;10407776;28;20227;-77
2023/07/09 23:11:57;;;;;;;5.57;4.03;;;27.20;24.20;;;;;;10406575;28;20232;-77
2023/07/09 23:17:01;;;;;;;5.90;3.50;;;27.20;24.50;;;;;;10406125;28;20783;-78
2023/07/09 23:22:05;;;;;;;3.77;3.43;;;27.10;24.90;;;;;;10407228;28;20627;-78
2023/07/09 23:27:15;;;;;;;4.20;3.77;;;27.00;24.60;;;;;;10406481;28;20309;-78
2023/07/09 23:32:22;;;;;;;4.80;3.43;;;26.90;25.40;;;;;;10408162;28;20245;-78
2023/07/09 23:37:25;;;;;;;4.27;3.50;;;26.80;25.00;;;;;;10405772;28;20304;-78
2023/07/09 23:42:29;;;;;;;4.23;3.73;;;26.70;24.80;;;;;;10406500;28;20801;-78
2023/07/09 23:47:33;;;;;;;4.30;3.90;;;26.60;24.90;;;;;;10406377;28;20256;-77
2023/07/09 23:52:36;;;;;;;5.43;4.10;;;26.60;25.30;;;;;;10408777;28;20250;-79
2023/07/09 23:57:43;;;;;;;5.50;4.37;;;26.50;25.10;;;;;;10405856;28;20737;-78
